sensor_id;sensor_type;location;lat;lon;timestamp;temperature;humidity
21582;DHT22;10952;50.836;4.348;2022-08-24T00:01:10;24.00;99.90
21582;DHT22;10952;50.836;4.348;2022-08-24T00:03:37;24.00;99.90
21582;DHT22;10952;50.836;4.348;2022-08-24T00:06:06;24.00;99.90
21582;DHT22;10952;50.836;4.348;2022-08-24T00:08:32;24.00;99.90
21582;DHT22;10952;50.836;4.348;2022-08-24T00:10:58;23.90;99.90
21582;DHT22;10952;50.836;4.348;2022-08-24T00:13:24;23.90;99.90
21582;DHT22;10952;50.836;4.348;2022-08-24T00:15:50;23.90;99.90
21582;DHT22;10952;50.836;4.348;2022-08-24T00:18:17;23.80;99.90
21582;DHT22;10952;50.836;4.348;2022-08-24T00:20:43;23.90;99.90
21582;DHT22;10952;50.836;4.348;2022-08-24T00:23:10;23.90;99.90
21582;DHT22;10952;50.836;4.348;2022-08-24T00:25:36;23.90;99.90
21582;DHT22;10952;50.836;4.348;2022-08-24T00:28:03;24.00;99.90
21582;DHT22;10952;50.836;4.348;2022-08-24T00:30:30;23.90;99.90
21582;DHT22;10952;50.836;4.348;2022-08-24T00:32:56;23.90;99.90
21582;DHT22;10952;50.836;4.348;2022-08-24T00:35:21;23.90;99.90
21582;DHT22;10952;50.836;4.348;2022-08-24T00:37:49;23.90;99.90
21582;DHT22;10952;50.836;4.348;2022-08-24T00:40:26;23.80;99.90
21582;DHT22;10952;50.836;4.348;2022-08-24T00:42:53;23.70;99.90
21582;DHT22;10952;50.836;4.348;2022-08-24T00:45:20;23.70;99.90
21582;DHT22;10952;50.836;4.348;2022-08-24T00:47:47;23.60;99.90
21582;DHT22;10952;50.836;4.348;2022-08-24T00:50:21;23.50;99.90
21582;DHT22;10952;50.836;4.348;2022-08-24T00:53:02;23.60;99.90
21582;DHT22;10952;50.836;4.348;2022-08-24T00:55:33;23.70;99.90
21582;DHT22;10952;50.836;4.348;2022-08-24T00:58:05;23.70;99.90
21582;DHT22;10952;50.836;4.348;2022-08-24T01:00:39;23.70;99.90
21582;DHT22;10952;50.836;4.348;2022-08-24T01:03:06;23.60;99.90
21582;DHT22;10952;50.836;4.348;2022-08-24T01:05:34;23.70;99.90
21582;DHT22;10952;50.836;4.348;2022-08-24T01:08:01;23.70;99.90
21582;DHT22;10952;50.836;4.348;2022-08-24T01:10:29;23.70;99.90
21582;DHT22;10952;50.836;4.348;2022-08-24T01:12:59;23.70;99.90
21582;DHT22;10952;50.836;4.348;2022-08-24T01:15:26;23.50;99.90
21582;DHT22;10952;50.836;4.348;2022-08-24T01:17:52;23.40;99.90
21582;DHT22;10952;50.836;4.348;2022-08-24T01:20:36;23.40;99.90
21582;DHT22;10952;50.836;4.348;2022-08-24T01:23:26;23.40;99.90
21582;DHT22;10952;50.836;4.348;2022-08-24T01:25:52;23.40;99.90
21582;DHT22;10952;50.836;4.348;2022-08-24T01:28:19;23.30;99.90
21582;DHT22;10952;50.836;4.348;2022-08-24T01:30:46;23.30;99.90
21582;DHT22;10952;50.836;4.348;2022-08-24T01:33:22;23.30;99.90
21582;DHT22;10952;50.836;4.348;2022-08-24T01:35:49;23.30;99.90
21582;DHT22;10952;50.836;4.348;2022-08-24T01:38:15;23.30;99.90
21582;DHT22;10952;50.836;4.348;2022-08-24T01:40:45;23.40;99.90
21582;DHT22;10952;50.836;4.348;2022-08-24T01:43:12;23.30;99.90
21582;DHT22;10952;50.836;4.348;2022-08-24T01:45:39;23.30;99.90
21582;DHT22;10952;50.836;4.348;2022-08-24T01:48:05;23.20;99.90
21582;DHT22;10952;50.836;4.348;2022-08-24T01:50:31;23.10;99.90
21582;DHT22;10952;50.836;4.348;2022-08-24T01:53:00;23.10;99.90
21582;DHT22;10952;50.836;4.348;2022-08-24T01:55:27;23.10;99.90
21582;DHT22;10952;50.836;4.348;2022-08-24T01:57:53;23.10;99.90
21582;DHT22;10952;50.836;4.348;2022-08-24T02:00:18;23.10;99.90
21582;DHT22;10952;50.836;4.348;2022-08-24T02:02:44;23.10;99.90
21582;DHT22;10952;50.836;4.348;2022-08-24T02:05:11;23.00;99.90
21582;DHT22;10952;50.836;4.348;2022-08-24T02:07:38;23.10;99.90
21582;DHT22;10952;50.836;4.348;2022-08-24T02:10:10;23.00;99.90
21582;DHT22;10952;50.836;4.348;2022-08-24T02:12:38;23.00;99.90
21582;DHT22;10952;50.836;4.348;2022-08-24T02:15:05;22.90;99.90
21582;DHT22;10952;50.836;4.348;2022-08-24T02:17:33;22.80;99.90
21582;DHT22;10952;50.836;4.348;2022-08-24T02:19:59;22.90;99.90
21582;DHT22;10952;50.836;4.348;2022-08-24T02:22:25;22.90;99.90
21582;DHT22;10952;50.836;4.348;2022-08-24T02:24:51;22.90;99.90
21582;DHT22;10952;50.836;4.348;2022-08-24T02:27:17;22.90;99.90
21582;DHT22;10952;50.836;4.348;2022-08-24T02:29:42;22.80;99.90
21582;DHT22;10952;50.836;4.348;2022-08-24T02:32:09;22.80;99.90
21582;DHT22;10952;50.836;4.348;2022-08-24T02:34:35;22.80;99.90
21582;DHT22;10952;50.836;4.348;2022-08-24T02:37:02;22.80;99.90
21582;DHT22;10952;50.836;4.348;2022-08-24T02:39:30;22.80;99.90
21582;DHT22;10952;50.836;4.348;2022-08-24T02:41:56;22.80;99.90
21582;DHT22;10952;50.836;4.348;2022-08-24T02:44:21;22.70;99.90
21582;DHT22;10952;50.836;4.348;2022-08-24T02:46:47;22.80;99.90
21582;DHT22;10952;50.836;4.348;2022-08-24T02:49:13;22.80;99.90
21582;DHT22;10952;50.836;4.348;2022-08-24T02:51:41;22.70;99.90
21582;DHT22;10952;50.836;4.348;2022-08-24T02:54:07;22.80;99.90
21582;DHT22;10952;50.836;4.348;2022-08-24T02:56:33;22.90;99.90
21582;DHT22;10952;50.836;4.348;2022-08-24T02:59:00;23.00;99.90
21582;DHT22;10952;50.836;4.348;2022-08-24T03:01:26;23.00;99.90
21582;DHT22;10952;50.836;4.348;2022-08-24T03:03:52;23.10;99.90
21582;DHT22;10952;50.836;4.348;2022-08-24T03:06:18;23.10;99.90
21582;DHT22;10952;50.836;4.348;2022-08-24T03:08:44;23.20;99.90
21582;DHT22;10952;50.836;4.348;2022-08-24T03:11:11;23.10;99.90
21582;DHT22;10952;50.836;4.348;2022-08-24T03:13:37;23.10;99.90
21582;DHT22;10952;50.836;4.348;2022-08-24T03:16:04;23.00;99.90
21582;DHT22;10952;50.836;4.348;2022-08-24T03:18:31;23.00;99.90
21582;DHT22;10952;50.836;4.348;2022-08-24T03:20:58;23.00;99.90
21582;DHT22;10952;50.836;4.348;2022-08-24T03:23:24;22.90;99.90
21582;DHT22;10952;50.836;4.348;2022-08-24T03:25:52;22.80;99.90
21582;DHT22;10952;50.836;4.348;2022-08-24T03:28:18;22.80;99.90
21582;DHT22;10952;50.836;4.348;2022-08-24T03:30:44;22.80;99.90
21582;DHT22;10952;50.836;4.348;2022-08-24T03:33:10;22.80;99.90
21582;DHT22;10952;50.836;4.348;2022-08-24T03:35:37;22.90;99.90
21582;DHT22;10952;50.836;4.348;2022-08-24T03:38:03;22.90;99.90
21582;DHT22;10952;50.836;4.348;2022-08-24T03:40:28;22.80;99.90
21582;DHT22;10952;50.836;4.348;2022-08-24T03:42:57;22.80;99.90
21582;DHT22;10952;50.836;4.348;2022-08-24T03:45:23;22.80;99.90
21582;DHT22;10952;50.836;4.348;2022-08-24T03:47:49;22.70;99.90
21582;DHT22;10952;50.836;4.348;2022-08-24T03:50:15;22.60;99.90
21582;DHT22;10952;50.836;4.348;2022-08-24T03:52:41;22.80;99.90
21582;DHT22;10952;50.836;4.348;2022-08-24T03:55:08;22.70;99.90
21582;DHT22;10952;50.836;4.348;2022-08-24T03:57:33;22.80;99.90
21582;DHT22;10952;50.836;4.348;2022-08-24T04:00:00;22.90;99.90
21582;DHT22;10952;50.836;4.348;2022-08-24T04:02:26;22.90;99.90
21582;DHT22;10952;50.836;4.348;2022-08-24T04:04:52;23.00;99.90
21582;DHT22;10952;50.836;4.348;2022-08-24T04:07:18;23.10;99.90
21582;DHT22;10952;50.836;4.348;2022-08-24T04:09:44;23.00;99.90
21582;DHT22;10952;50.836;4.348;2022-08-24T04:12:10;23.00;99.90
21582;DHT22;10952;50.836;4.348;2022-08-24T04:14:35;22.90;99.90
21582;DHT22;10952;50.836;4.348;2022-08-24T04:17:01;22.90;99.90
21582;DHT22;10952;50.836;4.348;2022-08-24T04:19:28;22.90;99.90
21582;DHT22;10952;50.836;4.348;2022-08-24T04:21:54;22.90;99.90
21582;DHT22;10952;50.836;4.348;2022-08-24T04:24:22;22.90;99.90
21582;DHT22;10952;50.836;4.348;2022-08-24T04:26:48;23.00;99.90
21582;DHT22;10952;50.836;4.348;2022-08-24T04:29:15;22.90;99.90
21582;DHT22;10952;50.836;4.348;2022-08-24T04:31:42;23.00;99.90
21582;DHT22;10952;50.836;4.348;2022-08-24T04:34:08;22.90;99.90
21582;DHT22;10952;50.836;4.348;2022-08-24T04:36:35;23.00;99.90
21582;DHT22;10952;50.836;4.348;2022-08-24T04:39:02;22.90;99.90
21582;DHT22;10952;50.836;4.348;2022-08-24T04:41:27;22.80;99.90
21582;DHT22;10952;50.836;4.348;2022-08-24T04:43:53;22.80;99.90
21582;DHT22;10952;50.836;4.348;2022-08-24T04:46:19;22.80;99.90
21582;DHT22;10952;50.836;4.348;2022-08-24T04:48:47;22.80;99.90
21582;DHT22;10952;50.836;4.348;2022-08-24T04:51:15;22.80;99.90
21582;DHT22;10952;50.836;4.348;2022-08-24T04:53:42;22.70;99.90
21582;DHT22;10952;50.836;4.348;2022-08-24T04:56:10;22.60;99.90
21582;DHT22;10952;50.836;4.348;2022-08-24T04:58:36;22.60;99.90
21582;DHT22;10952;50.836;4.348;2022-08-24T05:01:07;22.70;99.90
21582;DHT22;10952;50.836;4.348;2022-08-24T05:03:33;22.70;99.90
21582;DHT22;10952;50.836;4.348;2022-08-24T05:05:58;22.70;99.90
21582;DHT22;10952;50.836;4.348;2022-08-24T05:08:24;22.70;99.90
21582;DHT22;10952;50.836;4.348;2022-08-24T05:10:50;22.70;99.90
21582;DHT22;10952;50.836;4.348;2022-08-24T05:13:16;22.70;99.90
21582;DHT22;10952;50.836;4.348;2022-08-24T05:15:45;22.70;99.90
21582;DHT22;10952;50.836;4.348;2022-08-24T05:18:13;22.70;99.90
21582;DHT22;10952;50.836;4.348;2022-08-24T05:20:40;22.70;99.90
21582;DHT22;10952;50.836;4.348;2022-08-24T05:23:07;22.70;99.90
21582;DHT22;10952;50.836;4.348;2022-08-24T05:25:32;22.80;99.90
21582;DHT22;10952;50.836;4.348;2022-08-24T05:27:59;22.80;99.90
21582;DHT22;10952;50.836;4.348;2022-08-24T05:30:25;22.80;99.90
21582;DHT22;10952;50.836;4.348;2022-08-24T05:32:50;22.90;99.90
21582;DHT22;10952;50.836;4.348;2022-08-24T05:35:16;22.90;99.90
21582;DHT22;10952;50.836;4.348;2022-08-24T05:37:43;22.80;99.90
21582;DHT22;10952;50.836;4.348;2022-08-24T05:40:11;22.90;99.90
21582;DHT22;10952;50.836;4.348;2022-08-24T05:42:38;23.00;99.90
21582;DHT22;10952;50.836;4.348;2022-08-24T05:45:04;23.00;99.90
21582;DHT22;10952;50.836;4.348;2022-08-24T05:47:33;23.00;99.90
21582;DHT22;10952;50.836;4.348;2022-08-24T05:49:59;23.00;99.90
21582;DHT22;10952;50.836;4.348;2022-08-24T05:52:25;23.00;99.90
21582;DHT22;10952;50.836;4.348;2022-08-24T05:54:53;23.00;99.90
21582;DHT22;10952;50.836;4.348;2022-08-24T05:57:20;23.00;99.90
21582;DHT22;10952;50.836;4.348;2022-08-24T05:59:46;23.00;99.90
21582;DHT22;10952;50.836;4.348;2022-08-24T06:02:12;23.00;99.90
21582;DHT22;10952;50.836;4.348;2022-08-24T06:04:38;23.10;99.90
21582;DHT22;10952;50.836;4.348;2022-08-24T06:07:06;23.10;99.90
21582;DHT22;10952;50.836;4.348;2022-08-24T06:09:38;23.30;99.90
21582;DHT22;10952;50.836;4.348;2022-08-24T06:12:05;23.40;99.90
21582;DHT22;10952;50.836;4.348;2022-08-24T06:14:31;23.40;99.90
21582;DHT22;10952;50.836;4.348;2022-08-24T06:16:59;23.50;99.90
21582;DHT22;10952;50.836;4.348;2022-08-24T06:19:24;23.50;99.90
21582;DHT22;10952;50.836;4.348;2022-08-24T06:21:54;23.60;99.90
21582;DHT22;10952;50.836;4.348;2022-08-24T06:24:21;23.70;99.90
21582;DHT22;10952;50.836;4.348;2022-08-24T06:27:13;23.70;99.90
21582;DHT22;10952;50.836;4.348;2022-08-24T06:29:54;23.90;99.90
21582;DHT22;10952;50.836;4.348;2022-08-24T06:32:26;24.00;99.90
21582;DHT22;10952;50.836;4.348;2022-08-24T06:34:55;24.00;99.90
21582;DHT22;10952;50.836;4.348;2022-08-24T06:37:21;24.20;99.90
21582;DHT22;10952;50.836;4.348;2022-08-24T06:39:51;24.30;99.90
21582;DHT22;10952;50.836;4.348;2022-08-24T06:42:17;24.40;99.90
21582;DHT22;10952;50.836;4.348;2022-08-24T06:44:43;24.50;99.90
21582;DHT22;10952;50.836;4.348;2022-08-24T06:47:09;24.60;99.90
21582;DHT22;10952;50.836;4.348;2022-08-24T06:49:36;24.70;99.90
21582;DHT22;10952;50.836;4.348;2022-08-24T06:52:05;24.80;99.90
21582;DHT22;10952;50.836;4.348;2022-08-24T06:54:31;24.90;99.90
21582;DHT22;10952;50.836;4.348;2022-08-24T06:56:57;24.90;99.90
21582;DHT22;10952;50.836;4.348;2022-08-24T06:59:26;25.10;99.90
21582;DHT22;10952;50.836;4.348;2022-08-24T07:01:55;25.20;99.90
21582;DHT22;10952;50.836;4.348;2022-08-24T07:04:22;25.20;99.90
21582;DHT22;10952;50.836;4.348;2022-08-24T07:06:49;25.20;99.90
21582;DHT22;10952;50.836;4.348;2022-08-24T07:09:14;25.30;99.90
21582;DHT22;10952;50.836;4.348;2022-08-24T07:11:41;25.20;99.90
21582;DHT22;10952;50.836;4.348;2022-08-24T07:14:07;25.30;99.90
21582;DHT22;10952;50.836;4.348;2022-08-24T07:16:33;25.30;99.90
21582;DHT22;10952;50.836;4.348;2022-08-24T07:18:59;25.40;99.90
21582;DHT22;10952;50.836;4.348;2022-08-24T07:21:26;25.60;99.90
21582;DHT22;10952;50.836;4.348;2022-08-24T07:23:57;25.60;99.90
21582;DHT22;10952;50.836;4.348;2022-08-24T07:26:24;25.70;99.90
21582;DHT22;10952;50.836;4.348;2022-08-24T07:28:54;25.80;99.90
21582;DHT22;10952;50.836;4.348;2022-08-24T07:31:25;25.90;99.90
21582;DHT22;10952;50.836;4.348;2022-08-24T07:33:51;26.10;99.90
21582;DHT22;10952;50.836;4.348;2022-08-24T07:36:17;26.20;99.90
21582;DHT22;10952;50.836;4.348;2022-08-24T07:38:44;26.20;99.90
21582;DHT22;10952;50.836;4.348;2022-08-24T07:41:09;26.30;99.90
21582;DHT22;10952;50.836;4.348;2022-08-24T07:43:35;26.40;99.90
21582;DHT22;10952;50.836;4.348;2022-08-24T07:46:03;26.50;99.90
21582;DHT22;10952;50.836;4.348;2022-08-24T07:48:29;26.60;99.90
21582;DHT22;10952;50.836;4.348;2022-08-24T07:50:57;26.70;99.90
21582;DHT22;10952;50.836;4.348;2022-08-24T07:53:24;26.70;99.90
21582;DHT22;10952;50.836;4.348;2022-08-24T07:55:54;26.70;99.90
21582;DHT22;10952;50.836;4.348;2022-08-24T07:58:21;26.60;99.90
21582;DHT22;10952;50.836;4.348;2022-08-24T08:00:47;26.60;99.90
21582;DHT22;10952;50.836;4.348;2022-08-24T08:03:13;26.50;99.90
21582;DHT22;10952;50.836;4.348;2022-08-24T08:05:39;26.80;99.90
21582;DHT22;10952;50.836;4.348;2022-08-24T08:08:06;26.80;99.90
21582;DHT22;10952;50.836;4.348;2022-08-24T08:10:31;26.90;99.90
21582;DHT22;10952;50.836;4.348;2022-08-24T08:13:01;27.20;99.90
21582;DHT22;10952;50.836;4.348;2022-08-24T08:15:27;27.40;99.90
21582;DHT22;10952;50.836;4.348;2022-08-24T08:17:52;27.30;99.90
21582;DHT22;10952;50.836;4.348;2022-08-24T08:20:18;27.20;99.90
21582;DHT22;10952;50.836;4.348;2022-08-24T08:22:44;27.20;99.90
21582;DHT22;10952;50.836;4.348;2022-08-24T08:25:28;27.40;99.90
21582;DHT22;10952;50.836;4.348;2022-08-24T08:27:53;27.40;99.90
21582;DHT22;10952;50.836;4.348;2022-08-24T08:30:19;27.30;99.90
21582;DHT22;10952;50.836;4.348;2022-08-24T08:32:45;27.20;99.90
21582;DHT22;10952;50.836;4.348;2022-08-24T08:35:11;27.00;99.90
21582;DHT22;10952;50.836;4.348;2022-08-24T08:37:37;27.00;99.90
21582;DHT22;10952;50.836;4.348;2022-08-24T08:40:05;27.20;99.90
21582;DHT22;10952;50.836;4.348;2022-08-24T08:42:49;27.30;99.90
21582;DHT22;10952;50.836;4.348;2022-08-24T08:45:23;27.30;99.90
21582;DHT22;10952;50.836;4.348;2022-08-24T08:59:24;27.30;99.90
21582;DHT22;10952;50.836;4.348;2022-08-24T09:10:26;27.20;99.90
21582;DHT22;10952;50.836;4.348;2022-08-24T09:15:59;27.60;99.90
21582;DHT22;10952;50.836;4.348;2022-08-24T09:21:44;27.40;99.90
21582;DHT22;10952;50.836;4.348;2022-08-24T09:24:36;27.40;99.90
21582;DHT22;10952;50.836;4.348;2022-08-24T09:34:56;27.50;99.90
21582;DHT22;10952;50.836;4.348;2022-08-24T09:37:57;27.60;99.90
21582;DHT22;10952;50.836;4.348;2022-08-24T09:40:56;27.80;99.90
21582;DHT22;10952;50.836;4.348;2022-08-24T09:46:58;27.70;99.90
21582;DHT22;10952;50.836;4.348;2022-08-24T09:58:54;27.60;99.90
21582;DHT22;10952;50.836;4.348;2022-08-24T10:01:51;27.60;99.90
21582;DHT22;10952;50.836;4.348;2022-08-24T10:04:40;27.50;99.90
21582;DHT22;10952;50.836;4.348;2022-08-24T10:07:49;27.60;99.90
21582;DHT22;10952;50.836;4.348;2022-08-24T10:10:34;27.80;99.90
21582;DHT22;10952;50.836;4.348;2022-08-24T10:13:31;27.80;99.90
21582;DHT22;10952;50.836;4.348;2022-08-24T10:16:16;27.80;99.90
21582;DHT22;10952;50.836;4.348;2022-08-24T10:22:03;28.00;99.90
21582;DHT22;10952;50.836;4.348;2022-08-24T10:30:03;29.80;99.90
21582;DHT22;10952;50.836;4.348;2022-08-24T10:44:48;39.60;90.60
21582;DHT22;10952;50.836;4.348;2022-08-24T10:47:27;39.90;86.20
21582;DHT22;10952;50.836;4.348;2022-08-24T10:50:27;40.90;82.40
21582;DHT22;10952;50.836;4.348;2022-08-24T10:55:30;41.20;78.30
21582;DHT22;10952;50.836;4.348;2022-08-24T11:00:46;42.10;75.50
21582;DHT22;10952;50.836;4.348;2022-08-24T11:03:19;42.60;73.40
21582;DHT22;10952;50.836;4.348;2022-08-24T11:05:53;42.80;72.20
21582;DHT22;10952;50.836;4.348;2022-08-24T11:08:27;43.10;70.40
21582;DHT22;10952;50.836;4.348;2022-08-24T11:11:10;41.90;70.80
21582;DHT22;10952;50.836;4.348;2022-08-24T11:13:38;41.80;71.00
21582;DHT22;10952;50.836;4.348;2022-08-24T11:16:26;41.30;71.10
21582;DHT22;10952;50.836;4.348;2022-08-24T11:18:58;41.00;71.20
21582;DHT22;10952;50.836;4.348;2022-08-24T11:21:32;41.30;70.70
21582;DHT22;10952;50.836;4.348;2022-08-24T11:27:34;41.70;69.10
21582;DHT22;10952;50.836;4.348;2022-08-24T11:30:25;42.10;68.30
21582;DHT22;10952;50.836;4.348;2022-08-24T11:36:15;42.10;68.40
21582;DHT22;10952;50.836;4.348;2022-08-24T11:38:41;41.50;67.20
21582;DHT22;10952;50.836;4.348;2022-08-24T11:41:24;41.40;68.30
21582;DHT22;10952;50.836;4.348;2022-08-24T11:44:50;41.60;68.10
21582;DHT22;10952;50.836;4.348;2022-08-24T11:47:02;41.60;67.20
21582;DHT22;10952;50.836;4.348;2022-08-24T11:52:12;40.20;68.40
21582;DHT22;10952;50.836;4.348;2022-08-24T11:55:03;39.70;68.90
21582;DHT22;10952;50.836;4.348;2022-08-24T11:57:39;40.00;69.40
21582;DHT22;10952;50.836;4.348;2022-08-24T12:00:13;40.30;68.10
21582;DHT22;10952;50.836;4.348;2022-08-24T12:03:03;40.20;68.10
21582;DHT22;10952;50.836;4.348;2022-08-24T12:05:47;40.30;68.30
21582;DHT22;10952;50.836;4.348;2022-08-24T12:08:35;41.00;67.40
21582;DHT22;10952;50.836;4.348;2022-08-24T12:16:35;40.70;67.40
21582;DHT22;10952;50.836;4.348;2022-08-24T12:19:28;41.30;66.60
21582;DHT22;10952;50.836;4.348;2022-08-24T12:21:58;41.50;66.40
21582;DHT22;10952;50.836;4.348;2022-08-24T12:24:47;41.40;66.00
21582;DHT22;10952;50.836;4.348;2022-08-24T12:27:18;39.80;69.00
21582;DHT22;10952;50.836;4.348;2022-08-24T12:29:49;39.90;67.70
21582;DHT22;10952;50.836;4.348;2022-08-24T12:32:38;40.30;67.50
21582;DHT22;10952;50.836;4.348;2022-08-24T12:37:48;40.40;67.40
21582;DHT22;10952;50.836;4.348;2022-08-24T12:40:28;40.00;67.90
21582;DHT22;10952;50.836;4.348;2022-08-24T12:43:19;39.40;68.50
21582;DHT22;10952;50.836;4.348;2022-08-24T12:45:47;39.70;67.60
21582;DHT22;10952;50.836;4.348;2022-08-24T12:48:42;38.80;69.00
21582;DHT22;10952;50.836;4.348;2022-08-24T12:57:12;39.20;68.00
21582;DHT22;10952;50.836;4.348;2022-08-24T13:04:55;37.60;69.50
21582;DHT22;10952;50.836;4.348;2022-08-24T13:07:25;36.90;70.50
21582;DHT22;10952;50.836;4.348;2022-08-24T13:25:54;34.40;75.70
21582;DHT22;10952;50.836;4.348;2022-08-24T13:33:57;34.10;75.90
21582;DHT22;10952;50.836;4.348;2022-08-24T13:37:03;34.30;75.90
21582;DHT22;10952;50.836;4.348;2022-08-24T13:53:43;34.90;74.70
21582;DHT22;10952;50.836;4.348;2022-08-24T14:06:57;35.00;73.30
21582;DHT22;10952;50.836;4.348;2022-08-24T14:10:03;34.80;73.00
21582;DHT22;10952;50.836;4.348;2022-08-24T14:18:52;33.80;74.50
21582;DHT22;10952;50.836;4.348;2022-08-24T14:21:14;34.10;74.20
21582;DHT22;10952;50.836;4.348;2022-08-24T14:23:49;34.20;74.10
21582;DHT22;10952;50.836;4.348;2022-08-24T14:26:49;34.10;74.50
21582;DHT22;10952;50.836;4.348;2022-08-24T14:39:57;33.20;76.20
21582;DHT22;10952;50.836;4.348;2022-08-24T14:48:19;32.90;77.70
21582;DHT22;10952;50.836;4.348;2022-08-24T14:50:57;32.90;77.40
21582;DHT22;10952;50.836;4.348;2022-08-24T14:56:35;32.90;76.90
21582;DHT22;10952;50.836;4.348;2022-08-24T14:59:27;33.00;76.90
21582;DHT22;10952;50.836;4.348;2022-08-24T15:07:55;33.00;77.20
21582;DHT22;10952;50.836;4.348;2022-08-24T15:10:23;32.90;77.40
21582;DHT22;10952;50.836;4.348;2022-08-24T15:12:59;33.00;77.40
21582;DHT22;10952;50.836;4.348;2022-08-24T15:29:53;33.00;76.70
21582;DHT22;10952;50.836;4.348;2022-08-24T15:32:22;32.90;77.00
21582;DHT22;10952;50.836;4.348;2022-08-24T15:34:52;32.90;77.50
21582;DHT22;10952;50.836;4.348;2022-08-24T15:37:29;32.80;77.70
21582;DHT22;10952;50.836;4.348;2022-08-24T15:39:55;32.70;78.30
21582;DHT22;10952;50.836;4.348;2022-08-24T15:42:21;32.70;78.20
21582;DHT22;10952;50.836;4.348;2022-08-24T15:44:48;32.70;78.60
21582;DHT22;10952;50.836;4.348;2022-08-24T15:47:28;32.70;78.30
21582;DHT22;10952;50.836;4.348;2022-08-24T15:50:19;32.80;78.50
21582;DHT22;10952;50.836;4.348;2022-08-24T15:55:42;33.00;78.10
21582;DHT22;10952;50.836;4.348;2022-08-24T15:58:30;33.10;78.00
21582;DHT22;10952;50.836;4.348;2022-08-24T16:01:19;33.40;77.10
21582;DHT22;10952;50.836;4.348;2022-08-24T16:06:38;33.70;77.30
21582;DHT22;10952;50.836;4.348;2022-08-24T16:12:00;32.90;78.00
21582;DHT22;10952;50.836;4.348;2022-08-24T16:14:33;33.00;78.20
21582;DHT22;10952;50.836;4.348;2022-08-24T16:17:08;33.00;78.50
21582;DHT22;10952;50.836;4.348;2022-08-24T16:19:51;33.10;79.20
21582;DHT22;10952;50.836;4.348;2022-08-24T16:22:34;33.20;77.50
21582;DHT22;10952;50.836;4.348;2022-08-24T16:25:20;33.40;77.50
21582;DHT22;10952;50.836;4.348;2022-08-24T16:30:26;33.80;77.10
21582;DHT22;10952;50.836;4.348;2022-08-24T16:32:56;34.10;76.50
21582;DHT22;10952;50.836;4.348;2022-08-24T16:35:23;34.10;76.00
21582;DHT22;10952;50.836;4.348;2022-08-24T16:37:49;34.00;76.20
21582;DHT22;10952;50.836;4.348;2022-08-24T16:40:17;33.90;76.30
21582;DHT22;10952;50.836;4.348;2022-08-24T16:42:43;33.50;77.20
21582;DHT22;10952;50.836;4.348;2022-08-24T16:45:11;33.20;77.90
21582;DHT22;10952;50.836;4.348;2022-08-24T16:47:39;33.00;78.30
21582;DHT22;10952;50.836;4.348;2022-08-24T16:50:05;32.90;78.60
21582;DHT22;10952;50.836;4.348;2022-08-24T16:52:31;32.90;78.00
21582;DHT22;10952;50.836;4.348;2022-08-24T16:54:57;32.90;78.60
21582;DHT22;10952;50.836;4.348;2022-08-24T16:57:28;33.00;78.60
21582;DHT22;10952;50.836;4.348;2022-08-24T16:59:55;32.90;79.00
21582;DHT22;10952;50.836;4.348;2022-08-24T17:02:22;33.00;79.00
21582;DHT22;10952;50.836;4.348;2022-08-24T17:04:50;33.00;78.50
21582;DHT22;10952;50.836;4.348;2022-08-24T17:07:20;32.90;78.40
21582;DHT22;10952;50.836;4.348;2022-08-24T17:09:47;32.90;78.50
21582;DHT22;10952;50.836;4.348;2022-08-24T17:12:13;32.90;78.40
21582;DHT22;10952;50.836;4.348;2022-08-24T17:14:39;32.80;78.30
21582;DHT22;10952;50.836;4.348;2022-08-24T17:17:08;32.50;78.70
21582;DHT22;10952;50.836;4.348;2022-08-24T17:19:35;32.30;79.50
21582;DHT22;10952;50.836;4.348;2022-08-24T17:22:02;32.10;80.30
21582;DHT22;10952;50.836;4.348;2022-08-24T17:24:29;32.10;80.50
21582;DHT22;10952;50.836;4.348;2022-08-24T17:26:56;32.00;80.40
21582;DHT22;10952;50.836;4.348;2022-08-24T17:29:22;32.00;80.50
21582;DHT22;10952;50.836;4.348;2022-08-24T17:31:49;31.90;80.60
21582;DHT22;10952;50.836;4.348;2022-08-24T17:34:19;31.90;81.10
21582;DHT22;10952;50.836;4.348;2022-08-24T17:36:46;31.90;81.30
21582;DHT22;10952;50.836;4.348;2022-08-24T17:39:13;31.90;81.40
21582;DHT22;10952;50.836;4.348;2022-08-24T17:41:39;31.80;81.30
21582;DHT22;10952;50.836;4.348;2022-08-24T17:44:05;31.80;81.50
21582;DHT22;10952;50.836;4.348;2022-08-24T17:46:32;31.80;81.90
21582;DHT22;10952;50.836;4.348;2022-08-24T17:48:58;31.70;81.80
21582;DHT22;10952;50.836;4.348;2022-08-24T17:51:24;31.60;82.30
21582;DHT22;10952;50.836;4.348;2022-08-24T17:53:50;31.80;83.30
21582;DHT22;10952;50.836;4.348;2022-08-24T17:56:16;31.70;83.80
21582;DHT22;10952;50.836;4.348;2022-08-24T17:58:42;31.70;84.90
21582;DHT22;10952;50.836;4.348;2022-08-24T18:01:27;31.60;86.60
21582;DHT22;10952;50.836;4.348;2022-08-24T18:03:53;31.50;86.80
21582;DHT22;10952;50.836;4.348;2022-08-24T18:06:21;31.40;87.70
21582;DHT22;10952;50.836;4.348;2022-08-24T18:08:49;31.50;87.80
21582;DHT22;10952;50.836;4.348;2022-08-24T18:11:15;31.30;88.20
21582;DHT22;10952;50.836;4.348;2022-08-24T18:13:41;31.40;88.70
21582;DHT22;10952;50.836;4.348;2022-08-24T18:16:14;31.30;89.20
21582;DHT22;10952;50.836;4.348;2022-08-24T18:18:42;31.20;89.80
21582;DHT22;10952;50.836;4.348;2022-08-24T18:21:07;31.10;90.10
21582;DHT22;10952;50.836;4.348;2022-08-24T18:23:33;31.20;90.20
21582;DHT22;10952;50.836;4.348;2022-08-24T18:25:59;31.10;90.30
21582;DHT22;10952;50.836;4.348;2022-08-24T18:28:26;31.10;90.40
21582;DHT22;10952;50.836;4.348;2022-08-24T18:30:51;31.00;90.50
21582;DHT22;10952;50.836;4.348;2022-08-24T18:33:17;30.90;90.40
21582;DHT22;10952;50.836;4.348;2022-08-24T18:35:42;30.80;90.70
21582;DHT22;10952;50.836;4.348;2022-08-24T18:38:10;30.70;91.00
21582;DHT22;10952;50.836;4.348;2022-08-24T18:40:36;30.70;91.00
21582;DHT22;10952;50.836;4.348;2022-08-24T18:43:03;30.70;91.20
21582;DHT22;10952;50.836;4.348;2022-08-24T18:45:30;30.60;91.30
21582;DHT22;10952;50.836;4.348;2022-08-24T18:47:57;30.50;91.30
21582;DHT22;10952;50.836;4.348;2022-08-24T18:50:23;30.50;91.50
21582;DHT22;10952;50.836;4.348;2022-08-24T18:52:48;30.40;91.60
21582;DHT22;10952;50.836;4.348;2022-08-24T18:55:14;30.30;92.10
21582;DHT22;10952;50.836;4.348;2022-08-24T18:57:41;30.30;91.90
21582;DHT22;10952;50.836;4.348;2022-08-24T19:00:07;30.20;91.90
21582;DHT22;10952;50.836;4.348;2022-08-24T19:02:35;30.20;92.00
21582;DHT22;10952;50.836;4.348;2022-08-24T19:05:17;30.10;92.10
21582;DHT22;10952;50.836;4.348;2022-08-24T19:07:46;30.10;92.30
21582;DHT22;10952;50.836;4.348;2022-08-24T19:10:15;30.00;92.40
21582;DHT22;10952;50.836;4.348;2022-08-24T19:12:44;30.00;92.50
21582;DHT22;10952;50.836;4.348;2022-08-24T19:15:10;29.90;92.80